Asheville Regional Airport
KAVL : now visible

Airfield :











YOU CAN JOIN US ON...

 
LOGIN :

Register | Disclaimer

   EN    FR    IT 

 









Legend :    VFR   Marginal VFR   IFR   Intensive IFR   Very Intensive IFR
Visi :
Ceiling :
>= 8 km
>= 3000ft
5 to 8 km
1000 to 3000 ft
1500m to 5 km
500 to 1000 ft
800 to 1500m
200 to 500 ft
< 800m
< 200 ft
Symbols :   Thunderstorms  Fog  Heavy snow  Heavy precipitations  Wind > 20 kt






- Airport Elevation : 2165 ft
- IATA code : AVL


KAVL - Asheville Regional

CURRENT METAR :
  • 121643Z VRB03KT 3SM -RA BR FEW015 BKN031 OVC042 08/08 A3025 RMK AO2 P0002 T00830078

EXPIRED METARs :
  • 121633Z VRB03KT 2 1/2SM -RA BR SCT013 BKN029 OVC041 08/08 A3025 RMK AO2 P0002 T00830078
  • 121624Z VRB04KT 5SM -RA BR SCT007 BKN013 OVC030 09/07 A3025 RMK AO2 P0001 T00890072
  • 121554Z 09003KT 4SM -RA BR BKN009 OVC015 09/08 A3025 RMK AO2 SLP233 P0004 T00890083
  • 121454Z 00000KT 4SM RA BR BKN009 OVC014 09/09 A3024 RMK AO2 SLP230 P0006 60026 T00940089 51016
  • 121444Z VRB03KT 4SM RA BR BKN012 BKN016 OVC021 10/09 A3024 RMK AO2 P0004 T01000089
  • 121354Z 36004KT 6SM -RA BR SCT008 BKN018 OVC042 10/09 A3024 RMK AO2 SLP229 P0005 T01000094

TAF KAVL
Valid from the 12 at 15:00 until the 13 at 12:00 UTC


121505Z 1215/1312 VRB03KT 4SM -SHRA BR BKN009
FM121800 VRB06KT 6SM BR VCSH OVC015
FM122100 34007KT 6SM BR OVC025
FM130500 35006KT P6SM SCT045
KZTL FIR / North America



MET'MAP, your aeronautical weather chart ! - Copyright ORBIFLY December 2007 - Disclaimer

ORBIFLY MET'MAP TEAM :

Programming & Development : Alexandra Zaïnal
Concept & original design : Baudouin d'Aumeries
Assistance for programming : Marc-Olivier Méhu
Technical & hardware support : Manuel Goepfert

Contact : metmap@orbifly.com




SOURCES & CREDITS :

   NOAA       Earth
Advisory